Time;durP1;ratioP1;P1;durP2;ratioP2;P2;SDS_P1;SDS_P2;PMS_P1;PMS_P2;Temp;Humidity;BMP_temperature;BMP_pressure;BME280_temperature;BME280_humidity;BME280_pressure;Samples;Min_cycle;Max_cycle;Signal;HPM_P1;HPM_P2
2022/08/13 00:01:43;;;;;;;9.07;2.97;;;;;;;24.08;73.00;99709.34;4826213;29;20353;-61
2022/08/13 00:04:19;;;;;;;15.30;3.20;;;;;;;24.43;73.13;99713.59;4826355;29;20062;-61
2022/08/13 00:07:06;;;;;;;37.60;5.43;;;;;;;24.53;72.59;99706.56;4825962;29;20069;-61
2022/08/13 00:09:40;;;;;;;20.63;4.30;;;;;;;24.54;71.62;99689.56;4824245;29;20300;-60
2022/08/13 00:15:11;;;;;;;32.67;3.77;;;;;;;24.35;70.04;99677.84;4825797;29;20374;-60
2022/08/13 00:17:49;;;;;;;11.33;3.13;;;;;;;24.52;70.14;99680.84;4825777;29;20106;-61
2022/08/13 00:20:37;;;;;;;24.83;4.10;;;;;;;24.72;70.20;99664.97;4825675;29;20058;-61
2022/08/13 00:23:10;;;;;;;11.33;3.73;;;;;;;25.19;70.09;99694.81;4825944;29;20066;-61
2022/08/13 00:25:58;;;;;;;6.70;3.13;;;;;;;25.44;69.84;99698.03;4827128;29;20050;-61
2022/08/13 00:28:32;;;;;;;8.98;2.97;;;;;;;25.39;68.68;99707.31;4829073;29;20284;-60
2022/08/13 00:31:10;;;;;;;8.33;3.53;;;;;;;25.10;68.75;99700.91;4829001;29;20302;-61
2022/08/13 00:33:51;;;;;;;14.43;3.47;;;;;;;24.88;70.10;99686.72;4828770;29;20059;-61
2022/08/13 00:36:28;;;;;;;10.17;3.33;;;;;;;25.03;69.98;99710.44;4829191;29;20092;-59
2022/08/13 00:39:11;;;;;;;33.77;5.07;;;;;;;25.11;69.01;99713.28;4828557;29;20121;-60
2022/08/13 00:41:45;;;;;;;34.93;4.10;;;;;;;25.07;67.37;99719.91;4829037;29;20065;-60
2022/08/13 00:44:31;;;;;;;23.13;3.03;;;;;;;25.28;66.00;99719.91;4828894;29;20336;-60
2022/08/13 00:49:58;;;;;;;164.17;11.40;;;;;;;25.44;65.97;99730.13;4828888;29;20066;-62
2022/08/13 00:52:44;;;;;;;16.60;3.40;;;;;;;25.54;65.72;99725.66;4828941;29;20064;-61
2022/08/13 00:55:20;;;;;;;51.33;5.20;;;;;;;25.73;65.87;99731.06;4828585;29;20321;-60
2022/08/13 00:57:55;;;;;;;8.10;3.07;;;;;;;25.62;63.90;99728.50;4828643;29;20057;-61
2022/08/13 01:00:29;;;;;;;19.17;9.10;;;;;;;25.71;64.01;99725.03;4828806;29;20129;-60
2022/08/13 01:03:05;;;;;;;10.10;5.20;;;;;;;25.92;63.68;99724.16;4828639;29;20058;-60
2022/08/13 01:05:50;;;;;;;38.57;4.73;;;;;;;26.10;63.88;99722.47;4828530;29;20085;-61
2022/08/13 01:08:31;;;;;;;7.90;3.17;;;;;;;26.09;64.26;99719.97;4828490;29;20058;-62
2022/08/13 01:11:05;;;;;;;;;;;;;;;26.15;63.90;99725.59;4829139;29;20722;-60
2022/08/13 01:13:46;;;;;;;10.33;3.00;;;;;;;26.25;65.09;99721.09;4828320;29;20102;-60
2022/08/13 01:16:23;;;;;;;13.47;2.90;;;;;;;26.25;64.29;99737.16;4828413;29;20551;-63
2022/08/13 01:18:55;;;;;;;9.57;2.73;;;;;;;26.23;63.90;99735.59;4828464;29;20094;-59
2022/08/13 01:21:32;;;;;;;7.77;2.90;;;;;;;26.19;63.55;99724.34;4828531;29;20377;-60
2022/08/13 01:24:14;;;;;;;20.53;3.83;;;;;;;26.33;64.02;99727.59;4827915;29;20058;-61
2022/08/13 01:26:51;;;;;;;8.93;4.27;;;;;;;26.28;63.25;99729.84;4828384;29;20168;-60
2022/08/13 01:29:22;;;;;;;11.40;3.00;;;;;;;26.41;63.50;99730.41;4828257;29;20058;-60
2022/08/13 01:32:07;;;;;;;19.87;3.40;;;;;;;26.49;63.41;99727.91;4827873;29;20075;-61
2022/08/13 01:34:48;;;;;;;7.60;2.83;;;;;;;26.48;63.41;99720.84;4828035;29;20058;-60
2022/08/13 01:37:24;;;;;;;38.23;4.77;;;;;;;26.28;63.11;99729.84;4827280;29;20058;-60
2022/08/13 01:40:04;;;;;;;49.50;5.20;;;;;;;26.35;65.07;99723.78;4828083;29;20475;-60
2022/08/13 01:42:38;;;;;;;;;;;;;;;26.44;63.23;99727.47;4828506;29;20367;-61
2022/08/13 01:45:10;;;;;;;27.40;3.60;;;;;;;26.56;63.67;99723.72;4827662;29;20004;-61
2022/08/13 01:50:42;;;;;;;11.10;3.63;;;;;;;26.91;63.84;99733.00;4827705;29;20228;-61
2022/08/13 01:53:22;;;;;;;12.60;3.23;;;;;;;27.07;63.62;99730.56;4827702;29;20061;-60
2022/08/13 01:56:00;;;;;;;7.27;2.70;;;;;;;27.11;62.77;99723.94;4827491;29;20441;-60
2022/08/13 01:58:48;;;;;;;6.30;2.37;;;;;;;27.11;61.64;99720.41;4827889;29;20129;-60
2022/08/13 02:01:45;;;;;;;36.20;4.00;;;;;;;26.80;60.74;99690.25;4827891;29;20085;-61
2022/08/13 02:04:16;;;;;;;;;;;;;;;26.81;60.87;99716.06;4828151;29;20113;-61
2022/08/13 02:06:59;;;;;;;13.07;2.73;;;;;;;26.85;60.69;99720.16;4827893;29;20209;-61
2022/08/13 02:09:36;;;;;;;7.23;2.40;;;;;;;26.89;59.98;99710.84;4827435;29;20066;-64
2022/08/13 02:12:27;;;;;;;6.27;2.30;;;;;;;26.89;59.79;99702.81;4827815;29;20185;-60
2022/08/13 02:18:17;;;;;;;14.23;2.43;;;;;;;27.19;60.58;99714.34;4752105;30;20064;-63
2022/08/13 02:20:53;;;;;;;19.03;3.40;;;;;;;27.26;59.16;99718.16;4753372;30;20333;-61
2022/08/13 02:23:32;;;;;;;5.83;2.27;;;;;;;27.32;59.38;99717.53;4753603;30;20240;-61
2022/08/13 02:26:27;;;;;;;5.90;2.10;;;;;;;27.35;58.84;99703.84;4753173;30;20079;-60
2022/08/13 02:29:03;;;;;;;5.77;2.13;;;;;;;27.25;58.53;99703.03;4753737;30;20188;-61
2022/08/13 02:31:37;;;;;;;8.03;2.20;;;;;;;27.14;57.98;99697.81;4753468;30;20317;-60
2022/08/13 02:34:31;;;;;;;11.13;2.13;;;;;;;27.16;58.79;99695.81;4753702;30;20063;-59
2022/08/13 02:37:10;;;;;;;6.97;2.33;;;;;;;27.19;59.14;99692.88;4753105;30;20226;-61
2022/08/13 02:41:38;;;;;;;11.43;2.40;;;;;;;27.19;59.80;99687.53;4753030;30;20074;-61
2022/08/13 02:43:08;;;;;;;6.00;2.67;;;;;;;27.23;58.59;99691.59;4752998;30;20060;-60
2022/08/13 02:45:40;;;;;;;3.30;2.10;;;;;;;27.23;58.96;99705.00;4752964;30;20115;-60
2022/08/13 02:48:13;;;;;;;22.63;3.80;;;;;;;27.08;58.60;99681.31;4752765;30;20090;-60
2022/08/13 02:50:51;;;;;;;8.53;1.90;;;;;;;27.24;58.75;99698.66;4752854;30;20400;-60
2022/08/13 02:53:32;;;;;;;8.43;2.37;;;;;;;27.16;58.74;99693.13;4752154;30;20079;-60
2022/08/13 02:56:15;;;;;;;22.60;3.33;;;;;;;27.25;57.79;99693.13;4818022;29;20114;-61
2022/08/13 02:58:52;;;;;;;15.53;3.37;;;;;;;27.25;58.47;99693.13;4826592;29;20076;-61
2022/08/13 03:01:24;;;;;;;12.97;2.33;;;;;;;27.37;57.87;99696.50;4826902;29;20111;-62
2022/08/13 03:03:56;;;;;;;24.37;3.50;;;;;;;27.53;58.33;99683.31;4826988;29;20058;-61
2022/08/13 03:06:27;;;;;;;7.80;2.33;;;;;;;27.77;57.27;99678.38;4826845;29;20066;-63
2022/08/13 03:09:02;;;;;;;14.73;2.33;;;;;;;27.99;57.72;99669.09;4827096;29;20052;-60
2022/08/13 03:11:38;;;;;;;26.90;4.00;;;;;;;28.15;56.52;99680.00;4826723;29;20058;-62
2022/08/13 03:14:15;;;;;;;;;;;;;;;28.17;55.77;99688.75;4827164;29;20066;-61
2022/08/13 03:16:46;;;;;;;6.40;2.40;;;;;;;28.26;55.66;99679.78;4826691;29;19929;-61
2022/08/13 03:19:18;;;;;;;5.87;2.50;;;;;;;28.28;54.97;99669.72;4826553;29;20081;-62
2022/08/13 03:21:54;;;;;;;8.17;2.37;;;;;;;28.33;55.51;99670.09;4826309;29;20058;-61
2022/08/13 03:24:46;;;;;;;6.50;2.22;;;;;;;28.44;56.33;99673.56;4826818;29;20066;-61
2022/08/13 03:27:22;;;;;;;13.17;2.90;;;;;;;28.44;55.02;99678.94;4783873;29;20065;-62
2022/08/13 03:30:02;;;;;;;27.07;3.07;;;;;;;28.44;54.84;99678.94;4826131;29;20104;-60
2022/08/13 03:32:40;;;;;;;11.07;2.43;;;;;;;28.42;55.46;99670.16;4826627;29;20319;-61
2022/08/13 03:35:20;;;;;;;3.63;2.03;;;;;;;28.39;54.56;99665.94;4826221;29;20081;-61
2022/08/13 03:38:14;;;;;;;35.73;4.87;;;;;;;28.57;55.92;99666.81;4826534;29;20042;-58
2022/08/13 03:41:02;;;;;;;15.80;2.13;;;;;;;28.72;55.93;99667.09;4826079;29;20268;-58
2022/08/13 03:43:33;;;;;;;8.07;2.03;;;;;;;28.65;55.21;99667.88;4826004;29;20062;-59
2022/08/13 03:46:28;;;;;;;24.00;3.53;;;;;;;28.60;55.74;99668.34;4826250;29;20121;-58
2022/08/13 03:48:59;;;;;;;19.90;3.23;;;;;;;28.69;55.38;99671.94;4826522;29;20056;-60
2022/08/13 03:51:33;;;;;;;17.07;3.20;;;;;;;28.70;55.13;99666.41;4826197;29;20070;-58
2022/08/13 03:54:20;;;;;;;10.50;2.30;;;;;;;28.65;54.00;99663.34;4826296;29;20086;-60
2022/08/13 03:56:55;;;;;;;10.18;2.40;;;;;;;28.57;54.04;99663.28;4826112;29;20071;-58
2022/08/13 03:59:45;;;;;;;12.97;2.43;;;;;;;28.54;54.79;99650.16;4826109;29;20324;-60
2022/08/13 04:02:32;;;;;;;9.13;2.10;;;;;;;28.54;55.07;99652.84;4829674;29;20058;-59
2022/08/13 04:05:05;;;;;;;9.10;2.33;;;;;;;28.59;54.16;99650.53;4829222;29;20323;-59
2022/08/13 04:07:41;;;;;;;27.53;3.70;;;;;;;28.71;55.37;99651.97;4829585;29;20076;-59
2022/08/13 04:10:17;;;;;;;4.87;2.27;;;;;;;28.59;55.32;99661.28;4829682;29;20089;-59
2022/08/13 04:12:59;;;;;;;10.80;2.67;;;;;;;28.32;55.96;99659.50;4829483;29;20058;-60
2022/08/13 04:15:31;;;;;;;8.00;2.60;;;;;;;28.07;57.54;99647.69;4828530;29;20054;-61
2022/08/13 04:18:21;;;;;;;12.47;3.00;;;;;;;28.02;57.43;99636.56;4829201;29;20069;-62
2022/08/13 04:20:56;;;;;;;26.67;3.33;;;;;;;28.13;58.13;99639.88;4829188;29;20061;-61
2022/08/13 04:23:27;;;;;;;15.83;2.83;;;;;;;28.04;57.31;99646.16;4829492;29;20076;-61
2022/08/13 04:26:01;;;;;;;25.77;3.17;;;;;;;27.95;57.88;99642.53;4829088;29;20130;-60
2022/08/13 04:28:34;;;;;;;50.43;7.93;;;;;;;28.02;58.85;99641.94;4829230;29;20062;-61
2022/08/13 04:31:10;;;;;;;7.37;2.23;;;;;;;28.07;58.44;99647.69;4829041;29;20129;-61
2022/08/13 04:33:55;;;;;;;;;;;;;;;28.47;58.88;99635.66;4828795;29;20130;-61
2022/08/13 04:37:16;;;;;;;27.43;3.13;;;;;;;28.76;56.72;99636.22;4828863;29;20028;-62
2022/08/13 04:40:06;;;;;;;14.07;2.88;;;;;;;28.49;57.21;99639.03;4828270;29;20543;-60
2022/08/13 04:42:57;;;;;;;7.77;2.10;;;;;;;27.96;57.72;99635.34;4828905;29;20074;-61
2022/08/13 04:45:30;;;;;;;10.67;2.43;;;;;;;27.60;58.09;99631.69;4829189;29;20054;-60
2022/08/13 04:48:09;;;;;;;29.17;4.13;;;;;;;27.41;58.61;99648.72;4829201;29;20054;-61
2022/08/13 04:51:11;;;;;;;22.53;3.47;;;;;;;27.28;59.41;99649.06;4828992;29;20121;-60
2022/08/13 04:53:46;;;;;;;11.00;2.57;;;;;;;27.15;58.86;99649.38;4828965;29;20129;-61
2022/08/13 04:56:43;;;;;;;7.03;2.70;;;;;;;27.46;58.97;99641.97;4828717;29;20085;-62
2022/08/13 04:59:15;;;;;;;6.93;2.33;;;;;;;27.92;58.57;99652.72;4828469;29;20080;-60
2022/08/13 05:01:48;;;;;;;66.47;6.07;;;;;;;27.90;57.21;99660.94;4826364;29;20066;-64
2022/08/13 05:04:30;;;;;;;16.20;2.63;;;;;;;27.91;57.27;99656.44;4827885;29;20402;-60
2022/08/13 05:07:33;;;;;;;109.73;8.90;;;;;;;28.11;59.17;99638.34;4828258;29;20050;-62
2022/08/13 05:10:09;;;;;;;13.40;2.63;;;;;;;28.48;58.39;99659.69;4828291;29;20253;-62
2022/08/13 05:12:40;;;;;;;10.03;2.50;;;;;;;28.63;56.66;99651.91;4827596;29;20142;-60
2022/08/13 05:15:18;;;;;;;7.73;2.30;;;;;;;28.68;56.54;99660.34;4827575;29;20257;-62
2022/08/13 05:18:12;;;;;;;15.60;2.90;;;;;;;28.57;56.78;99649.84;4827927;29;20050;-60
2022/08/13 05:21:03;;;;;;;5.87;2.40;;;;;;;28.38;57.49;99665.13;4828097;29;20069;-60
2022/08/13 05:23:42;;;;;;;12.23;2.97;;;;;;;27.86;57.60;99670.28;4828192;29;20077;-60
2022/08/13 05:26:44;;;;;;;5.83;1.90;;;;;;;27.00;57.64;99683.03;4827888;29;20217;-61
2022/08/13 05:29:34;;;;;;;4.93;2.27;;;;;;;26.20;60.97;99683.19;4828180;29;20219;-59
2022/08/13 05:32:56;;;;;;;13.83;2.70;;;;;;;25.89;62.57;99660.19;4815937;29;20058;-58
2022/08/13 05:35:46;;;;;;;9.83;2.83;;;;;;;25.72;63.70;99683.91;4813630;29;20062;-59
2022/08/13 05:38:39;;;;;;;7.30;2.70;;;;;;;25.91;64.14;99679.59;4827726;29;20065;-60
2022/08/13 05:41:13;;;;;;;7.47;2.43;;;;;;;25.78;65.27;99672.63;4827591;29;20046;-58
2022/08/13 05:43:45;;;;;;;11.57;2.63;;;;;;;25.21;65.97;99682.16;4827546;29;20121;-61
2022/08/13 05:46:25;;;;;;;8.97;2.60;;;;;;;24.56;67.81;99659.22;4827841;29;20066;-59
2022/08/13 05:48:59;;;;;;;21.37;3.77;;;;;;;24.19;69.74;99684.47;4827582;29;20058;-59
2022/08/13 05:51:39;;;;;;;14.07;3.03;;;;;;;23.88;71.36;99686.09;4827691;29;20145;-59
2022/08/13 05:58:48;;;;;;;15.43;3.10;;;;;;;23.71;72.78;99689.25;4825814;29;20224;-60
2022/08/13 06:04:28;;;;;;;3.97;2.60;;;;;;;23.78;73.83;99709.16;4827582;29;20062;-59
2022/08/13 06:07:13;;;;;;;7.80;2.60;;;;;;;23.89;73.08;99712.69;4827403;29;20050;-60
2022/08/13 06:09:47;;;;;;;8.70;2.50;;;;;;;23.57;73.48;99709.88;4827459;29;20110;-60
2022/08/13 06:12:20;;;;;;;17.03;2.80;;;;;;;23.23;74.36;99704.53;4827438;29;20110;-59
2022/08/13 06:15:14;;;;;;;7.23;2.97;;;;;;;23.16;73.96;99700.63;4827179;29;20066;-60
2022/08/13 06:17:59;;;;;;;9.57;2.83;;;;;;;23.02;74.72;99714.19;4825811;29;20319;-60
2022/08/13 06:20:31;;;;;;;9.33;3.63;;;;;;;22.92;74.78;99715.84;4826992;29;20382;-60
2022/08/13 06:23:05;;;;;;;4.80;3.00;;;;;;;22.70;75.39;99714.81;4825733;29;20082;-61
2022/08/13 06:25:38;;;;;;;10.90;3.20;;;;;;;22.45;76.95;99725.59;4826445;29;20335;-60
2022/08/13 06:28:32;;;;;;;11.57;3.07;;;;;;;22.20;77.21;99719.41;4827078;29;20058;-60
2022/08/13 06:31:06;;;;;;;16.03;3.60;;;;;;;22.08;78.00;99717.63;4827138;29;20066;-60
2022/08/13 06:34:02;;;;;;;10.13;3.00;;;;;;;22.08;77.71;99728.25;4827009;29;20249;-60
2022/08/13 06:36:41;;;;;;;7.40;2.97;;;;;;;22.03;78.05;99730.41;4826204;29;20062;-60
2022/08/13 06:39:14;;;;;;;19.40;3.33;;;;;;;22.28;78.39;99719.69;4826911;29;20050;-60
2022/08/13 06:41:49;;;;;;;13.57;3.10;;;;;;;22.41;77.56;99722.28;4826872;29;20335;-61
2022/08/13 06:44:33;;;;;;;10.37;3.63;;;;;;;22.51;77.45;99725.13;4827117;29;20077;-60
2022/08/13 06:47:09;;;;;;;6.23;3.27;;;;;;;22.74;77.12;99721.59;4826957;29;20315;-60
2022/08/13 06:49:52;;;;;;;6.73;2.90;;;;;;;22.91;76.13;99722.13;4827012;29;20058;-60
2022/08/13 06:56:20;;;;;;;15.80;3.27;;;;;;;22.57;76.27;99727.34;4827135;29;20307;-61
2022/08/13 06:59:25;;;;;;;24.98;5.40;;;;;;;22.47;76.86;99734.31;4826658;29;20068;-60
2022/08/13 07:02:21;;;;;;;13.63;4.40;;;;;;;22.35;77.61;99726.28;4826410;29;20085;-60
2022/08/13 07:05:01;;;;;;;17.60;3.17;;;;;;;22.23;77.97;99737.81;4825388;29;20318;-59
2022/08/13 07:07:45;;;;;;;19.08;3.50;;;;;;;21.89;78.71;99745.56;4826598;29;20069;-59
2022/08/13 07:10:16;;;;;;;18.37;3.60;;;;;;;21.63;79.75;99750.06;4826473;29;20050;-61
2022/08/13 07:12:47;;;;;;;14.43;3.80;;;;;;;21.47;80.73;99739.66;4826267;29;20323;-60
2022/08/13 07:15:22;;;;;;;20.50;5.70;;;;;;;21.28;81.68;99739.22;4825899;29;20300;-61
2022/08/13 07:18:11;;;;;;;9.37;3.33;;;;;;;21.05;82.77;99741.63;4826155;29;20351;-60
2022/08/13 07:20:44;;;;;;;12.30;3.63;;;;;;;20.88;83.65;99749.91;4826420;29;20309;-61
2022/08/13 07:23:16;;;;;;;5.80;2.97;;;;;;;20.73;81.32;99758.88;4826749;29;20628;-61
2022/08/13 07:26:10;;;;;;;15.70;4.17;;;;;;;20.52;81.40;99755.81;4826489;29;20643;-61
2022/08/13 07:28:45;;;;;;;13.10;3.60;;;;;;;20.51;81.98;99757.63;4826215;29;20283;-59
2022/08/13 07:31:30;;;;;;;10.10;3.43;;;;;;;20.54;81.88;99762.72;4827068;29;20500;-61
2022/08/13 07:34:25;;;;;;;27.00;4.37;;;;;;;20.57;82.02;99765.22;4826080;29;20292;-59
2022/08/13 07:36:59;;;;;;;22.07;4.60;;;;;;;20.52;82.39;99762.00;4826054;29;20355;-61
2022/08/13 07:39:35;;;;;;;28.87;5.60;;;;;;;20.47;82.89;99766.75;4826043;29;20632;-60
2022/08/13 07:42:24;;;;;;;16.10;4.50;;;;;;;20.41;82.65;99781.25;4825848;29;20304;-60
2022/08/13 07:45:10;;;;;;;10.17;3.50;;;;;;;20.33;83.20;99780.06;4826505;29;20660;-60
2022/08/13 07:48:04;;;;;;;10.13;3.67;;;;;;;20.33;83.62;99772.09;4826348;29;20279;-61
2022/08/13 07:51:02;;;;;;;7.77;3.33;;;;;;;20.22;83.58;99781.59;4825877;29;20292;-60
2022/08/13 07:53:39;;;;;;;6.77;3.23;;;;;;;20.14;83.34;99797.13;4826124;29;20303;-61
2022/08/13 07:56:28;;;;;;;6.90;3.53;;;;;;;20.09;83.21;99795.72;4826066;29;20316;-60
2022/08/13 07:59:04;;;;;;;11.83;3.93;;;;;;;19.98;83.31;99783.16;4826016;29;20435;-60
2022/08/13 08:01:59;;;;;;;11.47;4.33;;;;;;;19.97;84.11;99792.06;4826121;29;20329;-61
2022/08/13 08:04:54;;;;;;;12.93;4.10;;;;;;;19.97;84.74;99792.06;4826130;29;20294;-60
2022/08/13 08:07:26;;;;;;;8.50;4.10;;;;;;;19.93;85.28;99801.16;4825732;29;20295;-60
2022/08/13 08:10:17;;;;;;;11.03;4.07;;;;;;;19.87;85.50;99806.81;4826087;29;20292;-60
2022/08/13 08:12:50;;;;;;;15.77;4.80;;;;;;;19.70;86.28;99806.06;4825790;29;20490;-60
2022/08/13 08:15:25;;;;;;;11.27;4.83;;;;;;;19.63;86.94;99810.00;4825844;29;20287;-59
2022/08/13 08:18:16;;;;;;;16.30;5.30;;;;;;;19.62;87.14;99797.72;4825623;29;20286;-60
2022/08/13 08:21:07;;;;;;;;;;;;;;;19.50;87.01;99798.47;4826103;29;20329;-62
2022/08/13 08:24:03;;;;;;;12.17;4.47;;;;;;;19.21;87.91;99763.13;4825870;29;19924;-61
2022/08/13 08:26:55;;;;;;;11.23;4.93;;;;;;;19.43;88.24;99807.72;4826047;29;20918;-62
2022/08/13 08:29:26;;;;;;;7.03;4.07;;;;;;;19.38;88.22;99800.91;4825618;29;20288;-63
2022/08/13 08:32:08;;;;;;;8.27;4.40;;;;;;;19.36;88.63;99802.78;4825353;29;20284;-61
2022/08/13 08:34:41;;;;;;;11.13;4.37;;;;;;;19.36;88.61;99781.59;4825808;29;20295;-60
2022/08/13 08:43:11;;;;;;;11.23;4.10;;;;;;;19.66;87.70;99799.22;4825707;29;20065;-61
2022/08/13 08:45:54;;;;;;;5.87;3.93;;;;;;;19.71;87.50;99802.47;4825394;29;20518;-61
2022/08/13 08:48:41;;;;;;;10.83;4.47;;;;;;;19.64;87.71;99794.97;4828590;29;20304;-60
2022/08/13 08:51:25;;;;;;;12.93;4.67;;;;;;;19.55;88.17;99778.69;4828692;29;20357;-60
2022/08/13 08:54:02;;;;;;;6.63;4.20;;;;;;;19.61;88.76;99788.91;4828663;29;20401;-59
2022/08/13 08:56:49;;;;;;;11.47;4.37;;;;;;;19.63;89.25;99786.16;4828594;29;20800;-59
2022/08/13 08:59:25;;;;;;;9.60;4.47;;;;;;;19.55;89.52;99772.53;4828983;29;20288;-58
2022/08/13 09:01:59;;;;;;;13.67;4.90;;;;;;;19.78;90.11;99793.19;4828475;29;20294;-59
2022/08/13 09:04:32;;;;;;;12.80;4.40;;;;;;;19.92;90.02;99804.72;4828974;29;20655;-59
2022/08/13 09:07:24;;;;;;;13.70;4.17;;;;;;;20.07;90.01;99809.09;4828507;29;20319;-59
2022/08/13 09:10:02;;;;;;;17.87;7.53;;;;;;;20.18;90.02;99806.59;4828228;29;20367;-59
2022/08/13 09:12:41;;;;;;;14.70;5.33;;;;;;;20.20;89.70;99810.00;4828409;29;20632;-59
2022/08/13 09:15:15;;;;;;;18.93;5.13;;;;;;;20.38;89.08;99815.94;4828209;29;20290;-59
2022/08/13 09:17:50;;;;;;;17.53;5.70;;;;;;;20.35;89.02;99789.63;4828065;29;20423;-59
2022/08/13 09:20:25;;;;;;;22.30;5.23;;;;;;;20.17;89.02;99751.84;4828139;29;20288;-59
2022/08/13 09:23:04;;;;;;;15.57;5.00;;;;;;;20.53;89.19;99800.84;4828256;29;20314;-59
2022/08/13 09:25:58;;;;;;;17.90;5.20;;;;;;;20.50;89.27;99795.72;4828431;29;20280;-59
2022/08/13 09:28:28;;;;;;;17.33;5.43;;;;;;;20.42;89.64;99788.28;4828096;29;20121;-59
2022/08/13 09:31:07;;;;;;;15.00;4.43;;;;;;;20.33;89.45;99799.47;4828050;29;20352;-58
2022/08/13 09:33:55;;;;;;;6.53;4.13;;;;;;;20.19;89.23;99803.03;4827868;29;20283;-59
2022/08/13 09:36:36;;;;;;;9.02;4.65;;;;;;;20.06;89.70;99801.22;4828132;29;20295;-58
2022/08/13 09:39:34;;;;;;;14.87;5.00;;;;;;;19.98;90.65;99791.09;4827679;29;20058;-59
2022/08/13 09:42:22;;;;;;;23.70;5.80;;;;;;;20.07;91.07;99797.63;4827700;29;20433;-58
2022/08/13 09:44:59;;;;;;;11.80;5.13;;;;;;;20.08;91.20;99800.19;4827613;29;20324;-59
2022/08/13 09:47:33;;;;;;;20.43;6.53;;;;;;;19.88;90.64;99798.78;4827964;29;20304;-59
2022/08/13 09:50:25;;;;;;;12.47;6.77;;;;;;;19.66;91.23;99804.50;4827676;29;20556;-59
2022/08/13 09:53:10;;;;;;;19.27;8.30;;;;;;;19.51;91.76;99795.69;4827796;29;20291;-59
2022/08/13 09:55:41;;;;;;;12.47;6.23;;;;;;;19.24;92.55;99797.38;4827688;29;20439;-61
2022/08/13 09:58:29;;;;;;;15.53;7.23;;;;;;;19.22;93.37;99805.44;4827328;29;20379;-60
2022/08/13 10:01:11;;;;;;;15.80;7.63;;;;;;;19.20;93.70;99812.59;4827646;29;20299;-59
2022/08/13 10:04:04;;;;;;;18.13;7.90;;;;;;;19.23;93.96;99812.41;4827423;29;20647;-59
2022/08/13 10:06:35;;;;;;;12.50;6.80;;;;;;;19.25;94.07;99805.25;4827766;29;20360;-60
2022/08/13 10:09:06;;;;;;;15.20;8.47;;;;;;;19.19;93.90;99805.59;4827056;29;20316;-62
2022/08/13 10:11:44;;;;;;;14.80;7.73;;;;;;;19.07;93.95;99808.94;4827458;29;20287;-60
2022/08/13 10:14:37;;;;;;;15.37;8.30;;;;;;;18.98;94.57;99812.16;4827027;29;20611;-60
2022/08/13 10:17:08;;;;;;;17.83;8.87;;;;;;;18.93;95.03;99804.47;4827445;29;20589;-60
2022/08/13 10:19:42;;;;;;;18.93;9.57;;;;;;;18.87;95.29;99805.69;4827406;29;20342;-60
2022/08/13 10:22:19;;;;;;;27.30;9.73;;;;;;;18.83;95.42;99796.22;4827348;29;20288;-61
2022/08/13 10:24:53;;;;;;;18.60;10.20;;;;;;;18.91;96.00;99801.06;4827314;29;20382;-63
2022/08/13 10:27:31;;;;;;;39.07;11.17;;;;;;;18.93;96.12;99804.47;4827115;29;20340;-62
2022/08/13 10:30:28;;;;;;;23.83;10.80;;;;;;;18.64;95.90;99777.00;4827376;29;20483;-61
2022/08/13 10:33:28;;;;;;;53.43;11.90;;;;;;;18.71;96.51;99815.41;4827066;29;20291;-61
2022/08/13 10:36:09;;;;;;;55.33;11.73;;;;;;;18.44;97.07;99786.94;4826884;29;20352;-61
2022/08/13 10:38:44;;;;;;;22.80;11.40;;;;;;;18.52;98.05;99816.47;4827201;29;20584;-62
2022/08/13 10:41:27;;;;;;;119.43;12.98;;;;;;;18.47;98.06;99813.25;4826968;29;20292;-61
2022/08/13 10:44:02;;;;;;;81.53;12.33;;;;;;;18.46;98.44;99806.22;4827075;29;20058;-61
2022/08/13 10:46:37;;;;;;;115.80;13.63;;;;;;;18.48;98.48;99808.78;4826718;29;20359;-62
2022/08/13 10:49:17;;;;;;;129.17;14.30;;;;;;;18.47;98.54;99812.34;4827126;29;20313;-62
2022/08/13 10:51:53;;;;;;;147.03;16.00;;;;;;;18.46;98.84;99805.38;4826909;29;20292;-61
2022/08/13 10:54:37;;;;;;;54.57;14.17;;;;;;;18.26;99.18;99777.41;4827183;29;20336;-61
2022/08/13 10:57:12;;;;;;;75.07;15.70;;;;;;;18.42;99.55;99802.06;4826659;29;20300;-62
2022/08/13 10:59:47;;;;;;;44.90;11.60;;;;;;;18.46;100.00;99811.50;4826841;29;20321;-60
2022/08/13 11:02:35;;;;;;;19.40;10.83;;;;;;;18.48;100.00;99809.63;4826817;29;20617;-61
2022/08/13 11:05:12;;;;;;;20.50;10.97;;;;;;;18.57;100.00;99815.34;4826483;29;20315;-61
2022/08/13 11:08:04;;;;;;;24.90;15.20;;;;;;;18.57;99.79;99813.56;4826381;29;20538;-61
2022/08/13 11:10:52;;;;;;;21.30;15.57;;;;;;;18.54;99.59;99797.84;4825580;29;20344;-62
2022/08/13 11:13:50;;;;;;;23.77;11.70;;;;;;;18.63;99.36;99812.38;4826541;29;20284;-61
2022/08/13 11:19:30;;;;;;;10.87;8.63;;;;;;;18.60;98.63;99802.81;4826459;29;20291;-61
2022/08/13 11:22:23;;;;;;;13.00;9.17;;;;;;;18.52;98.67;99795.31;4826829;29;20319;-62
2022/08/13 11:25:00;;;;;;;19.93;9.10;;;;;;;18.51;98.63;99796.22;4826222;29;20600;-61
2022/08/13 11:27:52;;;;;;;11.80;7.50;;;;;;;18.50;99.06;99791.03;4826419;29;20587;-61
2022/08/13 11:30:28;;;;;;;13.80;7.37;;;;;;;18.49;99.16;99800.75;4826330;29;20315;-60
2022/08/13 11:33:09;;;;;;;11.57;6.97;;;;;;;18.25;99.22;99754.56;4826671;29;20334;-60
2022/08/13 11:35:45;;;;;;;11.37;6.70;;;;;;;18.58;99.10;99793.25;4826478;29;20359;-62
2022/08/13 11:38:20;;;;;;;9.57;7.03;;;;;;;18.59;98.67;99794.94;4826476;29;20292;-61
2022/08/13 11:40:53;;;;;;;9.50;7.00;;;;;;;18.59;98.61;99795.78;4826399;29;20386;-60
2022/08/13 11:43:27;;;;;;;11.40;7.53;;;;;;;18.62;98.61;99794.75;4826576;29;20582;-61
2022/08/13 11:46:21;;;;;;;11.17;8.70;;;;;;;18.61;98.27;99798.38;4826264;29;20356;-62
2022/08/13 11:48:56;;;;;;;9.97;7.60;;;;;;;18.59;98.33;99789.66;4825816;29;20480;-61
2022/08/13 11:51:45;;;;;;;13.10;7.73;;;;;;;18.56;97.99;99797.78;4825996;29;20472;-60
2022/08/13 11:54:22;;;;;;;24.97;8.33;;;;;;;18.54;97.96;99800.50;4826151;29;20350;-60
2022/08/13 11:57:03;;;;;;;19.37;8.93;;;;;;;18.47;98.01;99804.41;4826099;29;20294;-61
2022/08/13 11:59:45;;;;;;;13.93;7.60;;;;;;;18.40;97.93;99801.28;4824613;29;20627;-61
2022/08/13 12:02:25;;;;;;;13.13;7.67;;;;;;;18.36;97.99;99805.03;4824397;29;20607;-60
2022/08/13 12:05:09;;;;;;;15.43;6.83;;;;;;;18.33;98.07;99794.63;4826166;29;20311;-60
2022/08/13 12:07:59;;;;;;;13.40;7.33;;;;;;;18.32;98.13;99801.72;4825600;29;20292;-61
2022/08/13 12:10:36;;;;;;;14.47;7.03;;;;;;;18.31;97.96;99799.16;4826995;29;20573;-61
2022/08/13 12:13:24;;;;;;;16.20;7.73;;;;;;;18.28;97.77;99796.69;4828843;29;20360;-62
2022/08/13 12:16:01;;;;;;;11.80;7.37;;;;;;;18.14;97.88;99799.22;4826225;29;20611;-59
2022/08/13 12:18:42;;;;;;;14.43;6.83;;;;;;;18.13;98.34;99797.53;4828936;29;20363;-59
2022/08/13 12:21:33;;;;;;;14.73;7.80;;;;;;;18.07;98.38;99783.72;4829957;29;20288;-58
2022/08/13 12:24:13;;;;;;;18.95;7.50;;;;;;;18.05;98.36;99790.88;4832149;29;20298;-58
2022/08/13 12:26:48;;;;;;;15.83;7.13;;;;;;;18.05;98.30;99798.81;4832082;29;20089;-58
2022/08/13 12:29:28;;;;;;;30.53;7.30;;;;;;;17.95;98.57;99794.13;4832153;29;20306;-58
2022/08/13 12:32:16;;;;;;;17.43;7.77;;;;;;;17.91;99.18;99788.13;4832164;29;20343;-59
2022/08/13 12:34:47;;;;;;;20.50;7.70;;;;;;;17.96;99.29;99790.53;4831854;29;20350;-58
2022/08/13 12:37:28;;;;;;;16.67;7.93;;;;;;;18.01;99.21;99789.31;4832200;29;20291;-59
2022/08/13 12:40:17;;;;;;;29.77;7.97;;;;;;;18.03;99.20;99792.75;4832198;29;20296;-59
2022/08/13 12:42:56;;;;;;;20.50;7.70;;;;;;;18.01;98.95;99784.03;4831702;29;20291;-58
2022/08/13 12:45:27;;;;;;;37.40;8.30;;;;;;;18.01;98.71;99777.91;4831985;29;20483;-58
2022/08/13 12:48:21;;;;;;;34.97;9.03;;;;;;;17.96;98.54;99780.78;4831112;29;20287;-58
2022/08/13 12:51:01;;;;;;;38.20;7.83;;;;;;;17.99;98.56;99777.97;4831389;29;20336;-61
2022/08/13 12:53:33;;;;;;;19.80;8.10;;;;;;;17.99;98.53;99775.34;4831413;29;20304;-60
2022/08/13 12:56:29;;;;;;;18.47;7.33;;;;;;;18.03;98.45;99782.16;4831689;29;20588;-60
2022/08/13 12:59:01;;;;;;;45.90;8.50;;;;;;;18.05;98.43;99784.75;4831504;29;20485;-59
2022/08/13 13:01:52;;;;;;;29.93;8.00;;;;;;;18.01;98.15;99793.75;4831222;29;20367;-58
2022/08/13 13:04:43;;;;;;;21.37;7.33;;;;;;;17.94;98.34;99790.59;4831300;29;20348;-59
2022/08/13 13:07:36;;;;;;;22.80;6.77;;;;;;;17.92;98.49;99799.53;4831251;29;20360;-59